Terminal Aerodrome Forecast
Issued by NWS Detroit/Pontiac, MI

Home | Current Version | Previous Version | Text Only | Print | Product List | Glossary On
Versions: 1 2 3 4 5 6 7 8 9 10 11 12 13 14 15 16 17 18 19 20 21 22 23 24 25 26 27 28 29 30
000
FTUS43 KDTX 240923 AAA
TAFDTW
TAF AMD
KDTW 240923Z 2409/2512 04006KT P6SM BKN150
     FM241300 07007KT P6SM SCT045 BKN100
     FM241700 10008KT 5SM -SHRA BR VCTS SCT028CB BKN040
     FM242200 07011KT 4SM -SHRA BR BKN015
     FM250300 05009KT 3SM -SHRA BR BKN008 OVC012
     FM251000 02007KT 3SM -SHRA BR OVC007=

USA.gov is the U.S. government's official web portal to all federal, state and local government web resources and services.